KOEB

Details ICAO KOEB (OEB)
Name BRANCH CO MEM
Region United States
Timezone America/Detroit (UTC-4.0)
Plans Departing 4
Arriving 7
Stats Elevation 959 ft / 292 m (AMSL)
Location 41.933676° -85.051693°
Runways 3
Magnetic Variation 5.974° W
Sunrise 2018-05-27 10:11:34 UTC / 2018-05-27 06:11:34 Local
Sunset 2018-05-28 01:06:06 UTC / 2018-05-27 21:06:06 Local
Advertisement - Login to hide

Runways

ID Width Length Bearing (true) Bearing (mag) Surface Threshold Offset Overrun Length
04 75 ft / 23 m 3,500 ft / 1,067 m 33.42° 39.39° Asphalt 0 ft / 0 m 0 ft / 0 m
07 75 ft / 23 m 5,342 ft / 1,628 m 63.76° 69.73° Asphalt 0 ft / 0 m 0 ft / 0 m
16 190 ft / 58 m 2,403 ft / 732 m 162.07° 168.04° Grass 595 ft / 181 m 0 ft / 0 m
22 75 ft / 23 m 3,500 ft / 1,067 m 213.42° 219.39° Asphalt 0 ft / 0 m 0 ft / 0 m
25 75 ft / 23 m 5,342 ft / 1,628 m 243.77° 249.74° Asphalt 0 ft / 0 m 0 ft / 0 m
34 190 ft / 58 m 2,403 ft / 732 m 342.07° 348.04° Grass 0 ft / 0 m 0 ft / 0 m

Map

Weather


0- 5 10 15 20 25 30 35+ Temperature / ° C

Clouds and Precipitation
Forecast for 2018-05-28 00:00 UTC. Updated an hour ago

Ground ~20,000 ft ~40,000 ft Winds

METAR

KOEB 272355Z AUTO 36003KT 10SM CLR 31/13 A2990 RMK AO2 T03100130 10341 20306

TAF

Not found

Frequencies

Recorded 118.12 MHz AWOS 3
Approach 121.20 MHz KALAMAZOO APP/DEP
Unicom 122.70 MHz CTAF/UNICOM
Warning: Do not use this data for real-world aviation or navigation. No guarantee of current accuracy is given.